Дата Пункты Температура Давл., мм. Влажн., % Ветер Погодные явления
Воздуха Воды Направл. Скорость
02.07.18 03:00 Одесса 14.0 21.0 758 93 З 1 03 ЧАСА
01.07.18 09:00 Одесса 21.0 21.0 757 62 З 1 21 ЧАС
01.07.18 06:00 Одесса 22.0 22.0 756 52 Ю-В 2 18 ЧАСОВ
01.07.18 03:00 Одесса 24.0 22.0 755 48 С 2 15 ЧАСОВ
01.07.18 12:00 Одесса 22.0 21.0 754 53 С-З 2 12 ЧАСОВ
01.07.18 09:00 Одесса 17.0 21.0 753 72 С-З 2 09 ЧАСОВ
01.07.18 06:00 Одесса 16.0 22.0 750 82 С-З 2 06 ЧАСОВ
01.07.18 03:00 Одесса 17.0 22.0 749 86 С-З 1 03 ЧАСА
30.06.18 09:00 Одесса 21.0 22.0 747 76 З 1 21 ЧАС
30.06.18 06:00 Одесса 22.0 22.0 746 68 Ю-З 3 18 ЧАСОВ
30.06.18 03:00 Одесса 25.0 22.0 746 67 Ю 5 15 ЧАСОВ
30.06.18 12:00 Одесса 24.0 22.0 746 69 Ю 5 12 ЧАСОВ
30.06.18 09:00 Одесса 23.0 22.0 746 81 Ю 4 09 ЧАСОВ
30.06.18 06:00 Одесса 19.0 22.0 746 92 З 2 06 ЧАСОВ
30.06.18 03:00 Одесса 19.0 22.0 746 92 Ю-З 1 03 ЧАСА
29.06.18 09:00 Одесса 18.0 22.0 747 96 Ю-З 1 21 ЧАС
29.06.18 06:00 Одесса 18.0 22.0 747 93 С-З 1 18 ЧАСОВ
29.06.18 03:00 Одесса 26.0 22.0 748 71 Ю 5 15 ЧАСОВ
29.06.18 12:00 Одесса 25.0 22.0 749 67 Ю 3 12 ЧАСОВ
29.06.18 09:00 Одесса 23.0 22.0 748 78 С-В 1 09 ЧАСОВ
Количество строк
1 2 3 4 5 6 7 8 9 10
Page 6 of 382